createdAt,value
2019-04-20T00:02:33.717Z,95.80
2019-04-20T00:07:41.840Z,97.00
2019-04-20T00:13:03.918Z,97.80
2019-04-20T00:18:04.396Z,98.30
2019-04-20T00:23:26.957Z,98.10
2019-04-20T00:28:45.691Z,98.60
2019-04-20T00:33:50.692Z,98.70
2019-04-20T00:38:52.948Z,98.40
2019-04-20T00:43:57.795Z,98.90
2019-04-20T00:49:20.733Z,99.00
2019-04-20T00:54:13.624Z,98.70
2019-04-20T00:59:31.736Z,99.10
2019-04-20T01:04:47.668Z,99.20
2019-04-20T01:10:05.022Z,99.70
2019-04-20T01:15:22.866Z,99.90
2019-04-20T01:20:22.619Z,99.90
2019-04-20T01:25:35.540Z,99.90
2019-04-20T01:30:44.447Z,99.90
2019-04-20T01:36:03.461Z,99.90
2019-04-20T01:40:59.043Z,99.90
2019-04-20T01:46:12.069Z,99.90
2019-04-20T01:51:22.827Z,99.90
2019-04-20T01:56:37.703Z,99.90
2019-04-20T02:01:55.784Z,99.90
2019-04-20T02:07:00.467Z,99.90
2019-04-20T02:12:12.118Z,99.90
2019-04-20T02:17:26.201Z,99.90
2019-04-20T02:22:45.116Z,99.90
2019-04-20T02:27:38.603Z,99.90
2019-04-20T02:33:30.019Z,99.90
2019-04-20T02:38:54.334Z,99.90
2019-04-20T02:44:03.761Z,99.90
2019-04-20T02:49:06.051Z,99.90
2019-04-20T02:54:11.485Z,99.90
2019-04-20T02:59:44.646Z,99.90
2019-04-20T03:03:53.898Z,99.90
2019-04-20T03:09:19.860Z,99.90
2019-04-20T03:14:22.464Z,99.90
2019-04-20T03:19:28.649Z,99.90
2019-04-20T03:24:51.558Z,99.90
2019-04-20T03:30:00.597Z,99.90
2019-04-20T03:35:20.961Z,99.90
2019-04-20T03:40:17.646Z,99.90
2019-04-20T03:45:14.912Z,99.90
2019-04-20T03:50:42.522Z,99.90
2019-04-20T03:56:14.041Z,99.90
2019-04-20T04:01:45.942Z,99.90
2019-04-20T04:06:26.348Z,99.90
2019-04-20T04:11:41.402Z,99.90
2019-04-20T04:16:42.834Z,99.90
2019-04-20T04:22:00.801Z,99.90
2019-04-20T04:27:05.892Z,99.90
2019-04-20T04:32:33.328Z,99.90
2019-04-20T04:37:24.309Z,99.90
2019-04-20T04:42:42.386Z,99.90
2019-04-20T04:47:28.603Z,99.90
2019-04-20T04:52:47.839Z,99.90
2019-04-20T04:57:45.375Z,99.90
2019-04-20T05:02:55.530Z,99.90
2019-04-20T05:08:10.201Z,99.40
2019-04-20T05:13:11.312Z,99.00
2019-04-20T05:18:44.920Z,98.80
2019-04-20T05:23:53.277Z,97.70
2019-04-20T05:28:58.965Z,97.30
2019-04-20T05:34:20.399Z,96.70
2019-04-20T05:39:36.827Z,95.90
2019-04-20T05:44:48.609Z,94.40
2019-04-20T05:49:50.083Z,93.00
2019-04-20T05:55:02.973Z,91.40
2019-04-20T06:00:15.898Z,89.70
2019-04-20T06:05:21.980Z,86.30
2019-04-20T06:10:36.121Z,82.50
2019-04-20T06:15:44.658Z,76.90
2019-04-20T06:20:52.392Z,76.50
2019-04-20T06:26:20.572Z,74.00
2019-04-20T06:31:14.935Z,70.10
2019-04-20T06:36:29.216Z,66.20
2019-04-20T06:41:45.373Z,63.00
2019-04-20T06:46:45.636Z,62.30
2019-04-20T06:51:54.287Z,61.20
2019-04-20T06:57:04.227Z,59.50
2019-04-20T07:02:18.707Z,57.80
2019-04-20T07:07:22.685Z,56.10
2019-04-20T07:12:24.360Z,56.20
2019-04-20T07:23:03.623Z,53.90
2019-04-20T07:28:05.370Z,51.20
2019-04-20T07:33:18.714Z,51.30
2019-04-20T07:38:41.788Z,50.20
2019-04-20T07:43:30.135Z,48.40
2019-04-20T07:48:39.626Z,47.00
2019-04-20T07:53:43.081Z,46.70
2019-04-20T07:58:47.486Z,46.90
2019-04-20T08:04:13.584Z,44.30
2019-04-20T08:09:22.018Z,45.10
2019-04-20T08:14:48.015Z,44.80
2019-04-20T08:19:49.499Z,43.90
2019-04-20T08:24:52.254Z,43.60
2019-04-20T08:30:02.076Z,43.30
2019-04-20T08:35:25.939Z,42.80
2019-04-20T08:40:36.080Z,44.50
2019-04-20T08:45:41.940Z,42.70
2019-04-20T08:50:55.595Z,43.10
2019-04-20T08:55:53.786Z,40.90
2019-04-20T09:00:53.587Z,40.70
2019-04-20T09:06:04.711Z,41.00
2019-04-20T09:11:20.285Z,40.50
2019-04-20T09:16:15.372Z,40.00
2019-04-20T09:21:33.071Z,39.70
2019-04-20T09:26:50.559Z,40.80
2019-04-20T09:32:16.769Z,39.40
2019-04-20T09:37:41.731Z,38.50
2019-04-20T09:42:46.762Z,38.60
2019-04-20T09:47:56.640Z,39.80
2019-04-20T09:53:19.569Z,37.90
2019-04-20T09:58:21.312Z,38.10
2019-04-20T10:03:20.945Z,38.80
2019-04-20T10:08:29.331Z,36.80
2019-04-20T10:13:36.724Z,37.80
2019-04-20T10:18:46.810Z,38.70
2019-04-20T10:23:52.615Z,37.20
2019-04-20T10:28:59.989Z,38.10
2019-04-20T10:34:07.409Z,36.90
2019-04-20T10:39:16.255Z,36.70
2019-04-20T10:44:23.436Z,36.50
2019-04-20T10:49:31.198Z,38.00
2019-04-20T10:54:38.524Z,36.90
2019-04-20T10:59:47.755Z,37.20
2019-04-20T11:04:54.883Z,36.90
2019-04-20T11:10:13.411Z,38.00
2019-04-20T11:15:12.966Z,35.90
2019-04-20T11:20:21.374Z,36.40
2019-04-20T11:25:30.255Z,35.80
2019-04-20T11:30:38.833Z,36.00
2019-04-20T11:35:46.912Z,36.80
2019-04-20T11:41:09.916Z,36.50
2019-04-20T11:46:04.835Z,37.50
2019-04-20T11:51:13.792Z,35.80
2019-04-20T11:56:26.196Z,34.60
2019-04-20T12:01:49.349Z,32.80
2019-04-20T12:06:54.837Z,31.50
2019-04-20T12:12:15.721Z,31.80
2019-04-20T12:17:11.899Z,31.10
2019-04-20T12:22:19.080Z,31.70
2019-04-20T12:27:26.958Z,31.40
2019-04-20T12:32:42.248Z,30.10
2019-04-20T12:37:43.168Z,30.00
2019-04-20T12:42:50.926Z,29.70
2019-04-20T12:47:58.136Z,28.80
2019-04-20T12:53:06.526Z,27.90
2019-04-20T12:58:14.580Z,27.50
2019-04-20T13:03:23.450Z,26.30
2019-04-20T13:08:36.820Z,26.20
2019-04-20T13:14:10.343Z,27.10
2019-04-20T13:19:19.433Z,26.60
2019-04-20T13:24:27.213Z,29.00
2019-04-20T13:29:35.123Z,28.60
2019-04-20T13:34:42.788Z,27.70
2019-04-20T13:39:51.086Z,29.10
2019-04-20T13:44:59.078Z,29.10
2019-04-20T13:50:07.230Z,29.30
2019-04-20T13:55:14.867Z,29.00
2019-04-20T14:00:45.046Z,28.60
2019-04-20T14:05:53.656Z,28.70
2019-04-20T14:11:00.832Z,29.30
2019-04-20T14:16:09.119Z,29.60
2019-04-20T14:21:18.483Z,29.80
2019-04-20T14:26:25.668Z,29.60
2019-04-20T14:31:33.971Z,29.20
2019-04-20T14:36:41.589Z,28.90
2019-04-20T14:41:48.710Z,28.00
2019-04-20T14:46:57.992Z,27.60
2019-04-20T14:52:06.338Z,27.30
2019-04-20T14:57:13.809Z,27.10
2019-04-20T15:02:25.827Z,26.70
2019-04-20T15:07:33.510Z,26.30
2019-04-20T15:12:48.833Z,26.30
2019-04-20T15:17:55.422Z,26.50
2019-04-20T15:23:09.553Z,26.50
2019-04-20T15:28:16.797Z,26.20
2019-04-20T15:33:25.128Z,25.90
2019-04-20T15:38:33.283Z,26.30
2019-04-20T15:43:41.461Z,26.40
2019-04-20T15:48:50.127Z,26.40
2019-04-20T15:53:57.753Z,27.20
2019-04-20T15:59:06.428Z,26.20
2019-04-20T16:04:37.281Z,26.50
2019-04-20T16:09:42.124Z,26.40
2019-04-20T16:14:51.337Z,26.80
2019-04-20T16:20:07.983Z,26.90
2019-04-20T16:25:21.648Z,27.50
2019-04-20T16:30:29.755Z,27.10
2019-04-20T16:35:38.285Z,27.30
2019-04-20T16:40:46.533Z,27.70
2019-04-20T16:45:55.066Z,27.90
2019-04-20T16:51:02.958Z,28.00
2019-04-20T16:56:10.632Z,28.50
2019-04-20T17:01:17.752Z,28.40
2019-04-20T17:06:26.311Z,29.00
2019-04-20T17:11:34.086Z,29.70
2019-04-20T17:16:41.912Z,30.00
2019-04-20T17:21:49.104Z,31.30
2019-04-20T17:27:13.163Z,31.00
2019-04-20T17:32:23.248Z,33.30
2019-04-20T17:37:39.026Z,36.90
2019-04-20T17:42:50.952Z,39.50
2019-04-20T17:48:05.332Z,40.30
2019-04-20T17:53:08.942Z,41.40
2019-04-20T17:58:13.775Z,42.30
2019-04-20T18:03:52.843Z,43.30
2019-04-20T18:08:45.386Z,44.00
2019-04-20T18:13:35.918Z,44.50
2019-04-20T18:19:04.014Z,45.10
2019-04-20T18:24:14.139Z,46.00
2019-04-20T18:29:38.398Z,47.10
2019-04-20T18:34:44.982Z,47.10
2019-04-20T18:39:57.466Z,48.00
2019-04-20T18:45:20.049Z,48.50
2019-04-20T18:50:18.414Z,48.90
2019-04-20T18:55:29.048Z,49.40
2019-04-20T19:00:33.397Z,50.50
2019-04-20T19:05:38.003Z,51.00
2019-04-20T19:10:54.181Z,51.50
2019-04-20T19:16:17.581Z,52.00
2019-04-20T19:21:15.197Z,52.70
2019-04-20T19:26:23.790Z,53.30
2019-04-20T19:31:45.842Z,53.70
2019-04-20T19:36:53.375Z,54.60
2019-04-20T19:41:59.678Z,54.70
2019-04-20T19:47:15.885Z,55.60
2019-04-20T19:52:36.769Z,55.70
2019-04-20T19:57:35.091Z,56.10
2019-04-20T20:02:25.931Z,56.00
2019-04-20T20:07:41.192Z,56.80
2019-04-20T20:12:47.951Z,57.20
2019-04-20T20:18:10.976Z,57.90
2019-04-20T20:23:01.853Z,58.30
2019-04-20T20:28:19.127Z,59.40
2019-04-20T20:33:36.405Z,60.30
2019-04-20T20:38:35.255Z,62.60
2019-04-20T20:43:49.570Z,65.00
2019-04-20T20:49:06.213Z,67.00
2019-04-20T20:54:02.246Z,68.90
2019-04-20T20:59:10.543Z,69.30
2019-04-20T21:04:10.063Z,70.70
2019-04-20T21:09:18.495Z,72.70
2019-04-20T21:14:29.261Z,72.10
2019-04-20T21:19:55.794Z,74.50
2019-04-20T21:24:49.808Z,77.20
2019-04-20T21:29:58.658Z,81.70
2019-04-20T21:35:11.039Z,84.40
2019-04-20T21:40:24.931Z,84.70
2019-04-20T21:45:30.330Z,86.70
2019-04-20T21:50:53.447Z,90.30
2019-04-20T21:55:43.726Z,91.30
2019-04-20T22:01:07.236Z,91.10
2019-04-20T22:06:06.924Z,91.80
2019-04-20T22:11:15.669Z,92.40
2019-04-20T22:16:25.595Z,93.10
2019-04-20T22:21:46.629Z,93.60
2019-04-20T22:26:52.444Z,94.00
2019-04-20T22:31:53.486Z,95.10
2019-04-20T22:36:58.216Z,95.50
2019-04-20T22:42:09.628Z,95.60
2019-04-20T22:47:22.682Z,96.00
2019-04-20T22:52:40.920Z,96.60
2019-04-20T22:57:48.837Z,97.30
2019-04-20T23:02:42.865Z,97.60
2019-04-20T23:07:50.565Z,97.80
2019-04-20T23:12:59.569Z,98.30
2019-04-20T23:18:06.552Z,98.60
2019-04-20T23:23:18.191Z,98.90
2019-04-20T23:28:23.048Z,98.80
2019-04-20T23:33:31.819Z,99.30
2019-04-20T23:38:49.078Z,99.30
2019-04-20T23:44:04.175Z,99.50
2019-04-20T23:49:29.874Z,99.90
2019-04-20T23:54:37.053Z,99.90
2019-04-20T23:59:44.940Z,99.90
